Time;durP1;ratioP1;P1;durP2;ratioP2;P2;SDS_P1;SDS_P2;PMS_P1;PMS_P2;Temp;Humidity;BMP_temperature;BMP_pressure;BME280_temperature;BME280_humidity;BME280_pressure;Samples;Min_cycle;Max_cycle;Signal;HPM_P1;HPM_P2
2022/10/07 00:01:11;;;;;;;14.35;2.85;;;;;;;;;;5088682;28;20041;-55
2022/10/07 00:03:36;;;;;;;12.70;2.65;;;;;;;;;;5086245;28;20044;-56
2022/10/07 00:06:03;;;;;;;12.90;3.08;;;;;;;;;;5087451;28;20502;-56
2022/10/07 00:08:28;;;;;;;14.60;2.67;;;;;;;;;;5088986;28;20031;-56
2022/10/07 00:10:54;;;;;;;16.92;2.90;;;;;;;;;;5092271;28;20037;-55
2022/10/07 00:13:19;;;;;;;14.00;2.80;;;;;;;;;;5090400;28;20047;-56
2022/10/07 00:15:44;;;;;;;9.45;2.55;;;;;;;;;;5090799;28;20094;-56
2022/10/07 00:18:09;;;;;;;12.27;2.67;;;;;;;;;;5090987;28;20050;-56
2022/10/07 00:20:38;;;;;;;15.48;3.25;;;;;;;;;;5089907;28;20020;-55
2022/10/07 00:23:03;;;;;;;14.10;3.05;;;;;;;;;;5088501;28;20111;-57
2022/10/07 00:25:29;;;;;;;12.55;2.67;;;;;;;;;;5090835;28;20456;-56
2022/10/07 00:27:54;;;;;;;16.13;3.78;;;;;;;;;;5091254;28;20102;-56
2022/10/07 00:30:20;;;;;;;10.93;3.10;;;;;;;;;;5090384;28;20054;-56
2022/10/07 00:32:45;;;;;;;17.00;3.35;;;;;;;;;;5087382;28;20371;-55
2022/10/07 00:35:10;;;;;;;8.73;3.50;;;;;;;;;;5089181;28;20051;-56
2022/10/07 00:37:41;;;;;;;16.55;3.10;;;;;;;;;;5090708;28;20046;-57
2022/10/07 00:40:06;;;;;;;11.23;2.85;;;;;;;;;;5092345;28;20060;-56
2022/10/07 00:42:34;;;;;;;13.27;2.83;;;;;;;;;;5081978;28;20054;-55
2022/10/07 00:44:59;;;;;;;10.00;2.40;;;;;;;;;;5087587;28;20089;-56
2022/10/07 00:47:28;;;;;;;9.10;3.03;;;;;;;;;;5091541;28;20583;-55
2022/10/07 00:49:58;;;;;;;12.88;3.35;;;;;;;;;;5074844;28;20023;-55
2022/10/07 00:52:24;;;;;;;8.85;2.85;;;;;;;;;;5085127;28;20466;-56
2022/10/07 00:54:51;;;;;;;16.92;3.50;;;;;;;;;;5088959;28;20042;-55
2022/10/07 00:57:17;;;;;;;17.50;3.80;;;;;;;;;;5082235;28;20069;-54
2022/10/07 00:59:42;;;;;;;19.75;3.60;;;;;;;;;;5091733;28;20023;-55
2022/10/07 01:02:07;;;;;;;14.85;3.35;;;;;;;;;;5092158;28;20092;-55
2022/10/07 01:04:33;;;;;;;12.75;3.17;;;;;;;;;;5097536;28;20136;-54
2022/10/07 01:06:58;;;;;;;11.15;3.17;;;;;;;;;;5073870;28;20136;-55
2022/10/07 01:09:23;;;;;;;13.52;3.53;;;;;;;;;;5090501;28;20107;-55
2022/10/07 01:11:48;;;;;;;10.30;3.33;;;;;;;;;;5096395;28;20023;-53
2022/10/07 01:14:23;;;;;;;10.52;2.80;;;;;;;;;;5091367;28;20019;-55
2022/10/07 01:17:00;;;;;;;12.88;2.63;;;;;;;;;;5089344;28;20395;-55
2022/10/07 01:19:44;;;;;;;15.48;3.58;;;;;;;;;;5093242;28;20470;-55
2022/10/07 01:22:28;;;;;;;18.15;4.07;;;;;;;;;;5090595;28;20019;-55
2022/10/07 01:24:53;;;;;;;15.82;5.20;;;;;;;;;;5091472;28;20347;-54
2022/10/07 01:27:19;;;;;;;9.55;4.10;;;;;;;;;;5096046;28;20061;-54
2022/10/07 01:29:54;;;;;;;15.40;4.40;;;;;;;;;;5093848;28;20152;-56
2022/10/07 01:32:40;;;;;;;17.00;4.35;;;;;;;;;;5081616;28;20457;-54
2022/10/07 01:35:07;;;;;;;13.63;4.70;;;;;;;;;;5089896;28;20057;-55
2022/10/07 01:37:34;;;;;;;17.52;4.03;;;;;;;;;;5096388;28;20084;-55
2022/10/07 01:40:01;;;;;;;7.80;3.42;;;;;;;;;;5093137;28;20434;-55
2022/10/07 01:42:26;;;;;;;9.73;3.17;;;;;;;;;;5096583;28;20635;-54
2022/10/07 01:44:52;;;;;;;13.70;3.22;;;;;;;;;;5094647;28;20115;-55
2022/10/07 01:47:18;;;;;;;14.05;4.03;;;;;;;;;;5093727;28;20061;-54
2022/10/07 01:49:43;;;;;;;15.45;3.80;;;;;;;;;;5090186;28;20403;-55
2022/10/07 01:52:27;;;;;;;16.58;3.60;;;;;;;;;;5096588;28;20489;-55
2022/10/07 01:55:06;;;;;;;20.23;3.40;;;;;;;;;;5086411;28;20069;-54
2022/10/07 01:57:58;;;;;;;8.32;3.70;;;;;;;;;;5091693;28;20012;-54
2022/10/07 02:00:23;;;;;;;11.50;3.63;;;;;;;;;;5089426;28;20027;-54
2022/10/07 02:03:08;;;;;;;16.95;3.65;;;;;;;;;;5094151;28;20034;-55
2022/10/07 02:05:41;;;;;;;13.75;3.35;;;;;;;;;;5085561;28;20064;-55
2022/10/07 02:08:12;;;;;;;14.18;3.70;;;;;;;;;;5092079;28;20111;-55
2022/10/07 02:10:56;;;;;;;9.55;3.50;;;;;;;;;;5095008;28;20028;-56
2022/10/07 02:13:37;;;;;;;12.57;3.22;;;;;;;;;;5085560;28;20016;-55
2022/10/07 02:16:04;;;;;;;;;;;;;;;;;;5092591;28;20029;-54
2022/10/07 02:18:30;;;;;;;18.10;4.70;;;;;;;;;;5097223;28;19918;-54
2022/10/07 02:20:55;;;;;;;17.50;3.80;;;;;;;;;;5088313;28;20470;-54
2022/10/07 02:23:20;;;;;;;12.60;4.18;;;;;;;;;;5087869;28;20035;-55
2022/10/07 02:25:47;;;;;;;11.77;3.53;;;;;;;;;;5082768;28;20168;-54
2022/10/07 02:28:13;;;;;;;20.02;3.60;;;;;;;;;;5088852;28;20134;-55
2022/10/07 02:30:38;;;;;;;10.38;3.45;;;;;;;;;;5095157;28;20016;-54
2022/10/07 02:33:04;;;;;;;13.00;3.80;;;;;;;;;;5087761;28;20084;-55
2022/10/07 02:35:46;;;;;;;15.18;3.40;;;;;;;;;;5085418;28;20105;-56
2022/10/07 02:38:12;;;;;;;8.30;3.22;;;;;;;;;;5090174;28;20060;-55
2022/10/07 02:40:42;;;;;;;14.57;3.30;;;;;;;;;;5090875;28;20016;-55
2022/10/07 02:43:17;;;;;;;14.27;3.55;;;;;;;;;;5094845;28;20072;-54
2022/10/07 02:45:48;;;;;;;14.57;3.65;;;;;;;;;;5093826;28;20028;-55
2022/10/07 02:48:32;;;;;;;17.45;3.35;;;;;;;;;;5090650;28;20012;-56
2022/10/07 02:50:59;;;;;;;7.97;3.10;;;;;;;;;;5088718;28;20020;-55
2022/10/07 02:53:25;;;;;;;11.68;3.40;;;;;;;;;;5093975;28;20046;-54
2022/10/07 02:55:50;;;;;;;13.80;3.40;;;;;;;;;;5095639;28;20462;-54
2022/10/07 02:58:15;;;;;;;11.23;3.47;;;;;;;;;;5090559;28;20024;-54
2022/10/07 03:00:41;;;;;;;13.55;3.70;;;;;;;;;;5089369;28;20016;-55
2022/10/07 03:03:06;;;;;;;8.98;3.58;;;;;;;;;;5083867;28;20039;-56
2022/10/07 03:05:32;;;;;;;19.98;4.65;;;;;;;;;;5083675;28;20032;-52
2022/10/07 03:07:58;;;;;;;16.20;4.00;;;;;;;;;;5089915;28;20016;-54
2022/10/07 03:10:25;;;;;;;16.10;3.67;;;;;;;;;;5091738;28;20050;-54
2022/10/07 03:12:50;;;;;;;15.32;4.13;;;;;;;;;;5086027;28;20442;-55
2022/10/07 03:15:16;;;;;;;9.93;3.67;;;;;;;;;;5092702;28;20034;-55
2022/10/07 03:17:41;;;;;;;11.27;3.90;;;;;;;;;;5097025;28;20041;-54
2022/10/07 03:20:07;;;;;;;10.65;4.10;;;;;;;;;;5090687;28;20023;-55
2022/10/07 03:22:32;;;;;;;15.05;3.67;;;;;;;;;;5087456;28;20016;-54
2022/10/07 03:24:57;;;;;;;12.50;4.05;;;;;;;;;;5092354;28;20035;-55
2022/10/07 03:27:22;;;;;;;6.78;3.50;;;;;;;;;;5108698;27;20034;-53
2022/10/07 03:29:49;;;;;;;10.10;3.90;;;;;;;;;;5093403;28;20012;-54
2022/10/07 03:32:14;;;;;;;13.27;4.85;;;;;;;;;;5095922;28;20020;-55
2022/10/07 03:34:39;;;;;;;12.02;5.32;;;;;;;;;;5090456;28;20520;-55
2022/10/07 03:37:04;;;;;;;9.50;3.70;;;;;;;;;;5090764;28;20028;-54
2022/10/07 03:39:30;;;;;;;9.75;3.40;;;;;;;;;;5096023;28;20074;-56
2022/10/07 03:41:55;;;;;;;8.52;3.67;;;;;;;;;;5087588;28;20020;-54
2022/10/07 03:44:21;;;;;;;24.42;3.90;;;;;;;;;;5089985;27;20031;-55
2022/10/07 03:46:49;;;;;;;11.45;3.75;;;;;;;;;;5088427;28;20032;-55
2022/10/07 03:49:14;;;;;;;7.13;3.38;;;;;;;;;;5094334;28;20019;-55
2022/10/07 03:51:40;;;;;;;17.90;4.55;;;;;;;;;;5097520;28;20027;-55
2022/10/07 03:54:06;;;;;;;8.43;3.60;;;;;;;;;;5088061;28;20032;-55
2022/10/07 03:56:31;;;;;;;8.40;3.67;;;;;;;;;;5104301;27;20119;-55
2022/10/07 03:58:56;;;;;;;10.10;3.88;;;;;;;;;;5092786;28;20018;-55
2022/10/07 04:01:21;;;;;;;5.65;3.13;;;;;;;;;;5087088;28;20028;-54
2022/10/07 04:03:46;;;;;;;8.50;3.88;;;;;;;;;;5091206;28;20131;-55
2022/10/07 04:06:12;;;;;;;9.90;3.90;;;;;;;;;;5088427;28;20111;-54
2022/10/07 04:08:39;;;;;;;7.05;4.03;;;;;;;;;;5090287;28;20035;-56
2022/10/07 04:11:04;;;;;;;7.57;3.50;;;;;;;;;;5084274;28;20561;-55
2022/10/07 04:13:30;;;;;;;4.22;2.63;;;;;;;;;;5085572;28;20047;-57
2022/10/07 04:15:55;;;;;;;11.00;3.58;;;;;;;;;;5070937;28;20482;-57
2022/10/07 04:18:21;;;;;;;10.95;4.00;;;;;;;;;;5087003;28;20025;-57
2022/10/07 04:20:46;;;;;;;12.38;5.47;;;;;;;;;;5092885;28;20024;-55
2022/10/07 04:23:11;;;;;;;9.95;4.38;;;;;;;;;;5085051;28;20027;-56
2022/10/07 04:25:41;;;;;;;12.82;4.43;;;;;;;;;;5084788;28;20047;-55
2022/10/07 04:28:07;;;;;;;8.25;4.13;;;;;;;;;;5087487;28;20380;-56
2022/10/07 04:30:33;;;;;;;10.32;4.25;;;;;;;;;;5093152;28;20461;-54
2022/10/07 04:33:02;;;;;;;10.77;4.47;;;;;;;;;;5088416;28;20529;-56
2022/10/07 04:35:27;;;;;;;19.95;4.15;;;;;;;;;;5089706;28;20030;-56
2022/10/07 04:37:53;;;;;;;10.57;3.90;;;;;;;;;;5098818;28;20019;-55
2022/10/07 04:40:18;;;;;;;8.45;4.28;;;;;;;;;;5090570;28;20478;-56
2022/10/07 04:45:28;;;;;;;10.25;3.75;;;;;;;;;;5092366;28;20097;-55
2022/10/07 04:47:53;;;;;;;8.85;4.22;;;;;;;;;;5097144;28;20028;-56
2022/10/07 04:50:18;;;;;;;9.48;3.90;;;;;;;;;;5091847;28;20461;-55
2022/10/07 04:52:43;;;;;;;14.85;4.32;;;;;;;;;;5095929;28;20024;-56
2022/10/07 04:55:11;;;;;;;9.38;4.07;;;;;;;;;;5090442;28;20453;-55
2022/10/07 04:57:36;;;;;;;7.50;3.83;;;;;;;;;;5092354;28;20383;-56
2022/10/07 05:00:02;;;;;;;10.00;4.15;;;;;;;;;;5101267;28;20457;-56
2022/10/07 05:02:27;;;;;;;9.20;3.88;;;;;;;;;;5090474;28;20052;-55
2022/10/07 05:04:52;;;;;;;6.43;3.55;;;;;;;;;;5099328;28;20557;-55
2022/10/07 05:07:17;;;;;;;9.85;3.63;;;;;;;;;;5093228;28;20365;-54
2022/10/07 05:09:43;;;;;;;9.88;3.75;;;;;;;;;;5091409;28;20310;-54
2022/10/07 05:12:08;;;;;;;8.05;3.63;;;;;;;;;;5091281;28;20028;-55
2022/10/07 05:14:33;;;;;;;10.55;3.90;;;;;;;;;;5089447;28;20373;-55
2022/10/07 05:16:59;;;;;;;16.30;4.25;;;;;;;;;;5095631;28;20488;-55
2022/10/07 05:19:24;;;;;;;7.88;3.90;;;;;;;;;;5095381;28;20488;-54
2022/10/07 05:21:50;;;;;;;10.88;4.07;;;;;;;;;;5096984;28;20217;-53
2022/10/07 05:24:15;;;;;;;7.78;3.78;;;;;;;;;;5091603;28;20311;-55
2022/10/07 05:26:40;;;;;;;12.25;3.92;;;;;;;;;;5090387;28;20126;-56
2022/10/07 05:29:06;;;;;;;6.07;3.90;;;;;;;;;;5094226;28;20032;-55
2022/10/07 05:31:31;;;;;;;8.55;3.67;;;;;;;;;;5087123;28;20079;-54
2022/10/07 05:33:56;;;;;;;8.32;4.35;;;;;;;;;;5085766;28;20054;-56
2022/10/07 05:36:22;;;;;;;7.20;3.90;;;;;;;;;;5095599;28;20028;-55
2022/10/07 05:38:48;;;;;;;8.60;4.20;;;;;;;;;;5094775;28;20435;-55
2022/10/07 05:41:13;;;;;;;9.68;4.28;;;;;;;;;;5093654;28;20019;-55
2022/10/07 05:43:41;;;;;;;7.53;3.47;;;;;;;;;;5099425;28;20483;-55
2022/10/07 05:46:09;;;;;;;7.28;3.83;;;;;;;;;;5088899;28;20051;-55
2022/10/07 05:48:35;;;;;;;10.52;3.95;;;;;;;;;;5081912;28;20174;-55
2022/10/07 05:51:00;;;;;;;11.75;6.15;;;;;;;;;;5078869;28;20107;-55
2022/10/07 05:53:26;;;;;;;24.45;7.78;;;;;;;;;;5087959;28;20466;-55
2022/10/07 05:55:51;;;;;;;29.23;11.57;;;;;;;;;;5081313;28;20035;-55
2022/10/07 05:58:17;;;;;;;34.50;6.78;;;;;;;;;;5091681;28;20465;-56
2022/10/07 06:00:55;;;;;;;26.45;6.25;;;;;;;;;;5092421;28;20016;-55
2022/10/07 06:03:20;;;;;;;11.50;6.20;;;;;;;;;;5088070;28;20031;-55
2022/10/07 06:05:46;;;;;;;11.02;5.50;;;;;;;;;;5093449;28;20031;-55
2022/10/07 06:08:11;;;;;;;8.98;5.22;;;;;;;;;;5096849;28;20487;-54
2022/10/07 06:13:21;;;;;;;215.90;47.63;;;;;;;;;;5083004;28;20038;-56
2022/10/07 06:15:46;;;;;;;135.90;37.88;;;;;;;;;;5084426;28;20020;-53
2022/10/07 06:18:11;;;;;;;123.15;31.40;;;;;;;;;;5091398;28;20139;-56
2022/10/07 06:20:36;;;;;;;76.65;23.73;;;;;;;;;;5088760;28;20024;-56
2022/10/07 06:23:02;;;;;;;25.67;9.48;;;;;;;;;;5093341;28;20013;-55
2022/10/07 06:25:27;;;;;;;19.63;8.00;;;;;;;;;;5094645;28;20032;-56
2022/10/07 06:27:54;;;;;;;12.95;5.63;;;;;;;;;;5085171;28;20007;-56
2022/10/07 06:30:19;;;;;;;8.25;4.50;;;;;;;;;;5092884;28;20032;-55
2022/10/07 06:32:45;;;;;;;8.32;3.40;;;;;;;;;;5091216;28;20361;-55
2022/10/07 06:35:10;;;;;;;7.93;3.42;;;;;;;;;;5083916;28;20028;-56
2022/10/07 06:37:35;;;;;;;5.80;3.28;;;;;;;;;;5088445;28;20458;-55
2022/10/07 06:40:00;;;;;;;5.18;3.10;;;;;;;;;;5084433;28;20024;-56
2022/10/07 06:42:25;;;;;;;5.53;2.88;;;;;;;;;;5091767;28;20025;-56
2022/10/07 06:44:52;;;;;;;4.28;2.33;;;;;;;;;;5094504;28;20016;-55
2022/10/07 06:47:18;;;;;;;3.85;2.10;;;;;;;;;;5092808;28;20043;-57
2022/10/07 06:49:43;;;;;;;5.50;1.83;;;;;;;;;;5084391;28;20016;-55
2022/10/07 06:52:08;;;;;;;2.58;1.90;;;;;;;;;;5084573;28;20038;-56
2022/10/07 06:54:33;;;;;;;3.72;1.77;;;;;;;;;;5088061;28;20016;-56
2022/10/07 06:56:58;;;;;;;2.75;1.83;;;;;;;;;;5085014;28;20458;-56
2022/10/07 06:59:24;;;;;;;3.50;1.70;;;;;;;;;;5085691;28;20255;-56
2022/10/07 07:01:49;;;;;;;4.10;1.90;;;;;;;;;;5084801;28;20020;-55
2022/10/07 07:04:14;;;;;;;5.88;3.03;;;;;;;;;;5093764;28;20527;-56
2022/10/07 07:06:39;;;;;;;10.60;5.63;;;;;;;;;;5091348;28;20501;-55
2022/10/07 07:09:04;;;;;;;8.02;4.57;;;;;;;;;;5086385;28;20016;-55
2022/10/07 07:11:36;;;;;;;8.55;5.28;;;;;;;;;;5088373;28;20035;-54
2022/10/07 07:14:04;;;;;;;6.47;3.65;;;;;;;;;;5096714;28;20016;-55
2022/10/07 07:16:29;;;;;;;4.22;2.28;;;;;;;;;;5088496;28;20028;-55
2022/10/07 07:18:55;;;;;;;3.55;2.03;;;;;;;;;;5087927;28;20024;-55
2022/10/07 07:21:21;;;;;;;4.70;2.15;;;;;;;;;;5078762;28;20070;-56
2022/10/07 07:23:46;;;;;;;3.13;2.00;;;;;;;;;;5086019;28;20028;-56
2022/10/07 07:26:12;;;;;;;2.33;1.60;;;;;;;;;;5089739;28;20591;-55
2022/10/07 07:28:38;;;;;;;3.72;1.80;;;;;;;;;;5093836;28;20370;-56
2022/10/07 07:31:09;;;;;;;2.38;1.60;;;;;;;;;;5089913;28;20028;-55
2022/10/07 07:33:38;;;;;;;4.20;2.00;;;;;;;;;;5097852;28;20440;-55
2022/10/07 07:36:14;;;;;;;3.90;1.65;;;;;;;;;;5089267;28;20129;-55
2022/10/07 07:38:39;;;;;;;2.47;1.63;;;;;;;;;;5091112;28;20020;-56
2022/10/07 07:41:04;;;;;;;2.17;1.52;;;;;;;;;;5095833;28;20412;-55
2022/10/07 07:43:30;;;;;;;3.35;1.73;;;;;;;;;;5094638;28;20023;-57
2022/10/07 07:45:57;;;;;;;4.05;1.95;;;;;;;;;;5087390;28;20126;-57
2022/10/07 07:48:22;;;;;;;2.42;1.60;;;;;;;;;;5087630;28;20507;-56
2022/10/07 07:50:47;;;;;;;5.57;1.80;;;;;;;;;;5092592;28;20164;-55
2022/10/07 07:53:13;;;;;;;5.82;1.80;;;;;;;;;;5088014;28;20048;-56
2022/10/07 07:55:38;;;;;;;4.43;1.70;;;;;;;;;;5083606;28;20169;-56
2022/10/07 07:58:03;;;;;;;2.45;1.60;;;;;;;;;;5084603;28;20028;-55
2022/10/07 08:00:29;;;;;;;4.28;1.80;;;;;;;;;;5093399;28;20081;-55
2022/10/07 08:02:54;;;;;;;4.97;1.90;;;;;;;;;;5087275;28;20026;-56
2022/10/07 08:05:19;;;;;;;7.13;2.33;;;;;;;;;;5092467;28;20136;-56
2022/10/07 08:07:45;;;;;;;6.13;2.20;;;;;;;;;;5091583;28;20038;-55
2022/10/07 08:10:10;;;;;;;6.50;2.35;;;;;;;;;;5083710;28;20043;-56
2022/10/07 08:12:35;;;;;;;4.22;2.08;;;;;;;;;;5080045;28;20806;-56
2022/10/07 08:15:00;;;;;;;6.00;2.20;;;;;;;;;;5079357;28;20023;-55
2022/10/07 08:17:26;;;;;;;4.15;2.20;;;;;;;;;;5076970;28;20066;-55
2022/10/07 08:19:53;;;;;;;3.70;2.05;;;;;;;;;;5081921;28;20020;-53
2022/10/07 08:22:18;;;;;;;4.95;2.20;;;;;;;;;;5084433;28;20032;-55
2022/10/07 08:24:44;;;;;;;7.20;2.50;;;;;;;;;;5085283;28;20016;-55
2022/10/07 08:27:10;;;;;;;3.90;2.10;;;;;;;;;;5078739;28;20036;-56
2022/10/07 08:29:35;;;;;;;6.55;2.22;;;;;;;;;;5077353;28;20491;-54
2022/10/07 08:32:01;;;;;;;4.35;2.20;;;;;;;;;;5083064;28;20534;-55
2022/10/07 08:34:26;;;;;;;5.10;2.17;;;;;;;;;;5075373;28;20020;-56
2022/10/07 08:36:51;;;;;;;4.57;2.30;;;;;;;;;;5078481;28;20548;-55
2022/10/07 08:39:16;;;;;;;6.82;2.45;;;;;;;;;;5084318;28;20020;-55
2022/10/07 08:41:51;;;;;;;4.65;1.90;;;;;;;;;;5080954;28;20035;-55
2022/10/07 08:44:18;;;;;;;5.55;1.98;;;;;;;;;;5080465;28;20393;-55
2022/10/07 08:46:54;;;;;;;21.70;3.08;;;;;;;;;;5079000;28;20940;-55
2022/10/07 08:49:23;;;;;;;7.35;2.65;;;;;;;;;;5071872;28;20458;-54
2022/10/07 08:51:49;;;;;;;11.55;2.63;;;;;;;;;;5072711;28;20040;-54
2022/10/07 08:54:15;;;;;;;11.57;3.08;;;;;;;;;;5076468;28;20416;-55
2022/10/07 08:56:41;;;;;;;16.98;4.30;;;;;;;;;;5079696;28;20015;-56
2022/10/07 08:59:08;;;;;;;10.48;2.83;;;;;;;;;;5092978;28;20373;-56
2022/10/07 09:01:52;;;;;;;8.80;2.65;;;;;;;;;;5084510;28;20016;-56
2022/10/07 09:04:37;;;;;;;12.57;3.33;;;;;;;;;;5078696;28;20398;-54
2022/10/07 09:07:12;;;;;;;9.57;3.08;;;;;;;;;;5057987;28;20533;-56
2022/10/07 09:09:41;;;;;;;21.95;3.25;;;;;;;;;;5082038;28;20031;-56
2022/10/07 09:12:08;;;;;;;19.20;3.38;;;;;;;;;;5089495;28;20027;-56
2022/10/07 09:14:36;;;;;;;18.42;3.88;;;;;;;;;;5085575;28;20020;-57
2022/10/07 09:17:09;;;;;;;19.20;3.75;;;;;;;;;;5078151;28;20024;-56
2022/10/07 09:19:38;;;;;;;20.17;3.72;;;;;;;;;;5083789;28;20047;-55
2022/10/07 09:22:10;;;;;;;15.48;3.60;;;;;;;;;;5082580;28;20718;-55
2022/10/07 09:24:35;;;;;;;19.00;4.53;;;;;;;;;;5073501;28;20046;-55
2022/10/07 09:27:01;;;;;;;22.23;4.53;;;;;;;;;;5083686;28;20383;-55
2022/10/07 09:29:27;;;;;;;20.75;4.63;;;;;;;;;;5089095;28;20109;-56
2022/10/07 09:31:53;;;;;;;26.67;5.03;;;;;;;;;;5086588;28;20477;-56
2022/10/07 09:34:20;;;;;;;30.40;5.68;;;;;;;;;;5096636;28;20016;-56
2022/10/07 09:37:21;;;;;;;31.33;5.45;;;;;;;;;;5094764;28;20385;-56
2022/10/07 09:39:50;;;;;;;26.80;5.50;;;;;;;;;;5021450;28;20439;-55
2022/10/07 09:42:21;;;;;;;35.67;5.97;;;;;;;;;;5076956;28;20483;-57
2022/10/07 09:44:52;;;;;;;32.92;5.93;;;;;;;;;;5090980;28;20085;-55
2022/10/07 09:47:39;;;;;;;29.48;5.68;;;;;;;;;;5080163;28;20446;-55
2022/10/07 09:50:04;;;;;;;31.02;5.40;;;;;;;;;;5093479;28;20424;-54
2022/10/07 09:52:30;;;;;;;30.63;5.80;;;;;;;;;;5107470;27;20084;-56
2022/10/07 09:55:16;;;;;;;23.50;5.10;;;;;;;;;;5083863;28;20016;-55
2022/10/07 09:57:41;;;;;;;27.63;5.07;;;;;;;;;;5071634;28;20539;-53
2022/10/07 10:00:12;;;;;;;20.88;4.85;;;;;;;;;;5091426;28;20035;-55
2022/10/07 10:02:41;;;;;;;24.70;5.15;;;;;;;;;;5084537;28;20024;-55
2022/10/07 10:05:17;;;;;;;23.20;4.95;;;;;;;;;;5091113;28;20348;-55
2022/10/07 10:07:42;;;;;;;21.25;4.78;;;;;;;;;;5082052;28;20073;-54
2022/10/07 10:10:17;;;;;;;22.58;4.70;;;;;;;;;;5092699;28;20623;-55
2022/10/07 10:12:46;;;;;;;23.58;4.47;;;;;;;;;;5088445;28;20031;-55
2022/10/07 10:15:24;;;;;;;25.83;4.93;;;;;;;;;;5073359;28;20016;-54
2022/10/07 10:17:50;;;;;;;17.00;4.43;;;;;;;;;;5087243;28;20261;-54
2022/10/07 10:20:25;;;;;;;25.15;4.50;;;;;;;;;;5107096;27;20370;-54
2022/10/07 10:22:51;;;;;;;21.77;3.78;;;;;;;;;;5087993;28;20154;-55
2022/10/07 10:28:37;;;;;;;22.00;4.00;;;;;;;;;;5093881;28;20539;-55
2022/10/07 10:31:05;;;;;;;18.50;4.30;;;;;;;;;;5084166;28;20588;-55
2022/10/07 10:33:34;;;;;;;25.67;5.78;;;;;;;;;;5086512;28;20676;-55
2022/10/07 10:36:17;;;;;;;19.83;4.57;;;;;;;;;;5091347;28;20455;-55
2022/10/07 10:38:49;;;;;;;22.98;4.43;;;;;;;;;;5084778;28;20440;-55
2022/10/07 10:41:27;;;;;;;36.50;5.13;;;;;;;;;;5086631;28;20458;-55
2022/10/07 10:44:05;;;;;;;24.95;5.63;;;;;;;;;;5089919;28;20031;-54
2022/10/07 10:46:49;;;;;;;19.52;5.07;;;;;;;;;;5079669;28;20060;-53
2022/10/07 10:49:15;;;;;;;24.48;5.00;;;;;;;;;;5084519;28;20022;-55
2022/10/07 10:51:47;;;;;;;37.35;5.03;;;;;;;;;;5092582;28;20111;-56
2022/10/07 10:54:12;;;;;;;22.42;4.50;;;;;;;;;;5094224;28;20113;-55
2022/10/07 10:56:47;;;;;;;12.35;4.07;;;;;;;;;;5091142;28;20103;-55
2022/10/07 10:59:21;;;;;;;14.48;3.95;;;;;;;;;;5091430;28;20449;-57
2022/10/07 11:01:49;;;;;;;19.15;3.65;;;;;;;;;;5083714;28;20028;-56
2022/10/07 11:04:17;;;;;;;20.45;3.80;;;;;;;;;;5087142;28;20405;-57
2022/10/07 11:06:44;;;;;;;9.23;2.50;;;;;;;;;;5088779;28;20055;-57
2022/10/07 11:09:13;;;;;;;11.90;2.58;;;;;;;;;;5089366;28;20095;-56
2022/10/07 11:11:38;;;;;;;13.32;2.70;;;;;;;;;;5088403;28;20085;-56
2022/10/07 11:14:04;;;;;;;10.38;2.55;;;;;;;;;;5078901;28;20478;-56
2022/10/07 11:16:37;;;;;;;10.95;2.30;;;;;;;;;;5082408;28;20748;-56
2022/10/07 11:19:02;;;;;;;11.68;2.10;;;;;;;;;;5086886;28;20045;-56
2022/10/07 11:21:36;;;;;;;16.60;4.10;;;;;;;;;;5094491;28;20015;-57
2022/10/07 11:24:05;;;;;;;10.32;2.13;;;;;;;;;;5085730;28;20428;-57
2022/10/07 11:26:36;;;;;;;11.63;2.42;;;;;;;;;;5089336;28;20561;-56
2022/10/07 11:29:03;;;;;;;13.38;2.70;;;;;;;;;;5083410;28;20034;-56
2022/10/07 11:31:32;;;;;;;8.00;2.25;;;;;;;;;;5092639;28;20012;-56
2022/10/07 11:34:14;;;;;;;9.80;2.37;;;;;;;;;;5092106;28;20052;-57
2022/10/07 11:36:42;;;;;;;10.32;2.28;;;;;;;;;;5091909;28;20047;-56
2022/10/07 11:39:07;;;;;;;8.70;2.33;;;;;;;;;;5089699;28;20608;-56
2022/10/07 11:41:33;;;;;;;12.70;2.35;;;;;;;;;;5094904;28;20110;-56
2022/10/07 11:44:00;;;;;;;10.05;2.38;;;;;;;;;;5067664;28;20024;-57
2022/10/07 11:46:26;;;;;;;7.30;2.22;;;;;;;;;;5076397;28;20493;-56
2022/10/07 11:49:05;;;;;;;15.35;2.60;;;;;;;;;;5108018;27;20023;-56
2022/10/07 11:51:33;;;;;;;12.18;2.47;;;;;;;;;;5070692;28;20255;-57
2022/10/07 11:54:01;;;;;;;15.65;2.47;;;;;;;;;;5082486;28;20198;-57
2022/10/07 11:56:27;;;;;;;10.02;1.90;;;;;;;;;;5082521;28;20031;-57
2022/10/07 11:59:02;;;;;;;10.15;2.20;;;;;;;;;;5078657;28;20103;-56
2022/10/07 12:01:34;;;;;;;10.27;2.10;;;;;;;;;;5082351;28;20046;-56
2022/10/07 12:04:35;;;;;;;8.27;1.95;;;;;;;;;;5079864;28;20064;-56
2022/10/07 12:07:19;;;;;;;13.50;2.83;;;;;;;;;;5021187;28;20034;-54
2022/10/07 12:10:02;;;;;;;10.48;2.20;;;;;;;;;;5080262;28;20035;-55
2022/10/07 12:12:46;;;;;;;12.65;2.80;;;;;;;;;;5082656;28;20543;-55
2022/10/07 12:15:26;;;;;;;6.10;2.03;;;;;;;;;;5088225;28;20027;-55
2022/10/07 12:17:51;;;;;;;;;;;;;;;;;;5090496;28;20454;-55
2022/10/07 12:20:37;;;;;;;8.82;2.17;;;;;;;;;;5083127;28;20266;-55
2022/10/07 12:23:18;;;;;;;6.47;1.98;;;;;;;;;;5067940;28;20096;-55
2022/10/07 12:25:45;;;;;;;8.52;2.00;;;;;;;;;;5074618;28;20293;-54
2022/10/07 12:28:29;;;;;;;13.48;2.30;;;;;;;;;;5078433;28;20039;-54
2022/10/07 12:30:55;;;;;;;7.75;1.90;;;;;;;;;;5076111;28;20103;-56
2022/10/07 12:33:33;;;;;;;11.95;2.30;;;;;;;;;;5076907;28;20030;-53
2022/10/07 12:35:58;;;;;;;9.10;2.00;;;;;;;;;;5077213;28;20077;-56
2022/10/07 12:38:24;;;;;;;10.15;2.88;;;;;;;;;;5079670;28;20020;-57
2022/10/07 12:40:56;;;;;;;7.90;1.88;;;;;;;;;;5078704;28;20320;-56
2022/10/07 12:43:44;;;;;;;9.82;2.78;;;;;;;;;;5087198;28;20362;-55
2022/10/07 12:46:10;;;;;;;6.80;1.98;;;;;;;;;;5083748;28;20032;-55
2022/10/07 12:48:45;;;;;;;5.88;1.70;;;;;;;;;;5087994;28;20026;-56
2022/10/07 12:51:25;;;;;;;10.13;2.05;;;;;;;;;;5091524;28;20028;-55
2022/10/07 12:53:51;;;;;;;9.52;1.73;;;;;;;;;;5077398;28;20024;-55
2022/10/07 12:56:20;;;;;;;8.70;2.70;;;;;;;;;;5086804;28;20034;-55
2022/10/07 13:01:44;;;;;;;6.82;1.85;;;;;;;;;;5085774;28;20097;-56
2022/10/07 13:04:25;;;;;;;5.43;1.73;;;;;;;;;;5092742;28;20062;-56
2022/10/07 13:07:02;;;;;;;8.02;1.63;;;;;;;;;;5095043;28;20066;-53
2022/10/07 13:09:46;;;;;;;6.60;2.05;;;;;;;;;;5094288;28;20019;-57
2022/10/07 13:12:24;;;;;;;9.63;2.20;;;;;;;;;;5091906;28;20392;-56
2022/10/07 13:15:05;;;;;;;10.10;1.98;;;;;;;;;;5088077;28;20028;-55
2022/10/07 13:17:54;;;;;;;5.03;1.77;;;;;;;;;;5082303;28;20056;-56
2022/10/07 13:20:34;;;;;;;7.68;2.00;;;;;;;;;;5086310;28;20738;-55
2022/10/07 13:23:10;;;;;;;8.02;2.30;;;;;;;;;;5093671;28;20078;-57
2022/10/07 13:25:36;;;;;;;8.73;1.98;;;;;;;;;;5075014;28;20027;-56
2022/10/07 13:28:01;;;;;;;9.50;2.10;;;;;;;;;;5090028;28;20036;-56
2022/10/07 13:30:39;;;;;;;8.38;1.88;;;;;;;;;;5086885;28;20248;-54
2022/10/07 13:33:23;;;;;;;9.57;2.65;;;;;;;;;;5092242;28;20032;-57
2022/10/07 13:35:49;;;;;;;9.98;1.98;;;;;;;;;;5087390;28;20028;-55
2022/10/07 13:38:24;;;;;;;9.13;1.90;;;;;;;;;;5099993;28;20106;-56
2022/10/07 13:40:56;;;;;;;7.18;1.80;;;;;;;;;;5087742;28;20437;-56
2022/10/07 13:43:22;;;;;;;3.80;1.50;;;;;;;;;;5067703;28;20439;-57
2022/10/07 13:45:47;;;;;;;5.55;1.77;;;;;;;;;;5093853;28;20036;-56
2022/10/07 13:48:15;;;;;;;8.13;1.85;;;;;;;;;;5094786;28;20030;-56
2022/10/07 13:50:41;;;;;;;5.93;1.80;;;;;;;;;;5088923;28;20032;-54
2022/10/07 13:53:11;;;;;;;7.72;1.95;;;;;;;;;;5085305;28;20090;-55
2022/10/07 13:55:37;;;;;;;6.50;1.90;;;;;;;;;;5093397;28;20025;-54
2022/10/07 13:58:03;;;;;;;9.85;2.25;;;;;;;;;;5087884;28;20020;-55
2022/10/07 14:00:28;;;;;;;9.65;2.10;;;;;;;;;;5087640;28;20119;-55
2022/10/07 14:02:53;;;;;;;10.98;2.00;;;;;;;;;;5091559;28;20016;-54
2022/10/07 14:05:22;;;;;;;11.25;2.83;;;;;;;;;;5090898;28;20067;-54
2022/10/07 14:07:54;;;;;;;8.68;2.20;;;;;;;;;;5084466;28;20024;-58
2022/10/07 14:10:19;;;;;;;10.55;2.42;;;;;;;;;;5077440;28;20035;-56
2022/10/07 14:12:45;;;;;;;6.75;1.85;;;;;;;;;;5083706;28;20386;-55
2022/10/07 14:15:21;;;;;;;10.00;2.10;;;;;;;;;;5082654;28;20044;-56
2022/10/07 14:17:50;;;;;;;9.18;1.90;;;;;;;;;;5081577;28;20031;-55
2022/10/07 14:20:32;;;;;;;7.80;2.10;;;;;;;;;;5085116;28;20015;-55
2022/10/07 14:23:00;;;;;;;8.10;2.17;;;;;;;;;;5091600;28;20492;-55
2022/10/07 14:25:27;;;;;;;9.52;2.17;;;;;;;;;;5083409;28;20481;-55
2022/10/07 14:27:54;;;;;;;9.25;1.80;;;;;;;;;;5071628;28;20024;-56
2022/10/07 14:36:14;;;;;;;11.02;2.05;;;;;;;;;;5084822;28;20058;-55
2022/10/07 14:38:40;;;;;;;11.32;2.28;;;;;;;;;;5083856;28;20016;-56
2022/10/07 14:41:06;;;;;;;8.00;2.67;;;;;;;;;;5089641;28;20392;-55
2022/10/07 14:43:31;;;;;;;7.13;2.00;;;;;;;;;;5083121;28;20020;-55
2022/10/07 14:45:56;;;;;;;8.77;2.10;;;;;;;;;;5090065;28;20107;-55
2022/10/07 14:48:21;;;;;;;7.47;1.88;;;;;;;;;;5093236;28;20034;-55
2022/10/07 14:50:47;;;;;;;10.85;1.92;;;;;;;;;;5092138;28;20020;-55
2022/10/07 14:53:12;;;;;;;8.80;3.40;;;;;;;;;;5089127;28;20068;-54
2022/10/07 14:55:37;;;;;;;9.57;2.50;;;;;;;;;;5087536;28;20031;-55
2022/10/07 14:58:03;;;;;;;11.85;3.40;;;;;;;;;;5082371;28;20409;-55
2022/10/07 15:00:29;;;;;;;7.50;2.05;;;;;;;;;;5082897;28;20046;-55
2022/10/07 15:02:55;;;;;;;7.68;2.10;;;;;;;;;;5092099;28;20012;-56